createdAt,value
2018-07-17T00:01:02.344Z,59.76
2018-07-17T00:03:33.504Z,59.23
2018-07-17T00:06:03.988Z,59.61
2018-07-17T00:08:34.400Z,59.89
2018-07-17T00:11:04.761Z,59.20
2018-07-17T00:13:34.852Z,58.75
2018-07-17T00:16:05.029Z,59.81
2018-07-17T00:18:35.159Z,60.28
2018-07-17T00:21:05.491Z,60.58
2018-07-17T00:23:35.637Z,60.78
2018-07-17T00:26:05.870Z,60.69
2018-07-17T00:28:35.976Z,60.00
2018-07-17T00:31:06.089Z,59.55
2018-07-17T00:33:36.351Z,59.43
2018-07-17T00:36:06.724Z,59.38
2018-07-17T00:38:36.866Z,59.22
2018-07-17T00:41:07.243Z,59.34
2018-07-17T00:43:37.420Z,59.88
2018-07-17T00:46:07.827Z,60.03
2018-07-17T00:48:37.955Z,60.54
2018-07-17T00:51:08.212Z,61.33
2018-07-17T00:53:38.380Z,61.69
2018-07-17T00:56:08.632Z,61.96
2018-07-17T00:58:38.399Z,62.28
2018-07-17T01:01:07.449Z,63.03
2018-07-17T01:03:42.506Z,63.15
2018-07-17T01:06:17.825Z,62.96
2018-07-17T01:08:53.221Z,63.34
2018-07-17T01:11:28.211Z,63.97
2018-07-17T01:14:19.463Z,63.89
2018-07-17T01:16:50.360Z,64.43
2018-07-17T01:19:20.544Z,64.75
2018-07-17T01:21:50.625Z,64.98
2018-07-17T01:24:20.803Z,64.90
2018-07-17T01:26:50.985Z,64.67
2018-07-17T01:29:21.405Z,64.91
2018-07-17T01:31:51.539Z,65.13
2018-07-17T01:34:21.747Z,65.46
2018-07-17T01:36:52.753Z,65.39
2018-07-17T01:39:22.901Z,65.97
2018-07-17T01:41:53.113Z,65.90
2018-07-17T01:44:23.211Z,65.56
2018-07-17T01:46:53.440Z,66.51
2018-07-17T01:49:23.656Z,66.75
2018-07-17T01:51:53.962Z,67.86
2018-07-17T01:54:24.291Z,68.24
2018-07-17T01:56:54.380Z,67.86
2018-07-17T01:59:24.550Z,67.80
2018-07-17T02:01:54.775Z,67.94
2018-07-17T02:04:25.002Z,68.12
2018-07-17T02:06:55.102Z,68.12
2018-07-17T02:09:26.343Z,68.75
2018-07-17T02:11:56.497Z,68.95
2018-07-17T02:14:26.669Z,68.87
2018-07-17T02:16:56.980Z,69.12
2018-07-17T02:19:27.173Z,69.21
2018-07-17T02:21:57.272Z,69.31
2018-07-17T02:24:27.392Z,69.71
2018-07-17T02:26:57.550Z,70.12
2018-07-17T02:29:27.383Z,70.27
2018-07-17T02:31:57.494Z,70.34
2018-07-17T02:34:27.692Z,70.24
2018-07-17T02:36:57.887Z,70.14
2018-07-17T02:39:28.013Z,70.19
2018-07-17T02:41:58.167Z,70.08
2018-07-17T02:44:28.253Z,69.76
2018-07-17T02:46:58.417Z,68.45
2018-07-17T02:49:28.596Z,68.46
2018-07-17T02:51:58.818Z,68.18
2018-07-17T02:54:29.059Z,68.35
2018-07-17T02:56:59.223Z,67.76
2018-07-17T02:59:29.381Z,67.44
2018-07-17T03:01:59.575Z,67.25
2018-07-17T03:04:30.127Z,67.04
2018-07-17T03:07:00.396Z,66.75
2018-07-17T03:09:30.691Z,66.56
2018-07-17T03:12:00.798Z,66.46
2018-07-17T03:14:31.012Z,65.95
2018-07-17T03:17:01.149Z,66.31
2018-07-17T03:19:31.297Z,66.96
2018-07-17T03:22:01.430Z,67.21
2018-07-17T03:24:31.645Z,67.51
2018-07-17T03:27:01.876Z,67.83
2018-07-17T03:29:32.086Z,67.99
2018-07-17T03:32:02.193Z,67.78
2018-07-17T03:34:32.593Z,66.96
2018-07-17T03:37:02.405Z,67.60
2018-07-17T03:39:32.718Z,66.68
2018-07-17T03:42:02.441Z,65.52
2018-07-17T03:44:32.618Z,64.69
2018-07-17T03:47:03.208Z,64.49
2018-07-17T03:49:33.397Z,63.96
2018-07-17T03:52:03.599Z,64.62
2018-07-17T03:54:33.802Z,65.06
2018-07-17T03:57:03.905Z,65.91
2018-07-17T03:59:34.061Z,66.04
2018-07-17T04:02:04.254Z,65.20
2018-07-17T04:04:34.459Z,64.65
2018-07-17T04:07:04.667Z,63.70
2018-07-17T04:09:34.856Z,62.87
2018-07-17T04:12:04.985Z,63.05
2018-07-17T04:14:35.131Z,62.25
2018-07-17T04:17:05.229Z,60.93
2018-07-17T04:19:35.407Z,61.01
2018-07-17T04:22:05.545Z,61.95
2018-07-17T04:24:35.731Z,61.76
2018-07-17T04:27:05.924Z,61.92
2018-07-17T04:29:36.070Z,63.49
2018-07-17T04:32:06.197Z,61.94
2018-07-17T04:34:36.301Z,61.76
2018-07-17T04:37:06.581Z,62.04
2018-07-17T04:39:36.807Z,62.85
2018-07-17T04:42:07.170Z,63.24
2018-07-17T04:44:37.324Z,61.98
2018-07-17T04:47:07.776Z,61.27
2018-07-17T04:49:37.965Z,61.71
2018-07-17T04:52:08.233Z,62.00
2018-07-17T04:54:38.399Z,62.69
2018-07-17T04:57:08.976Z,62.90
2018-07-17T04:59:38.724Z,63.80
2018-07-17T05:02:08.953Z,61.18
2018-07-17T05:04:39.119Z,60.77
2018-07-17T05:07:09.363Z,62.59
2018-07-17T05:09:39.538Z,60.52
2018-07-17T05:12:09.796Z,61.38
2018-07-17T05:14:40.082Z,62.69
2018-07-17T05:17:10.270Z,62.55
2018-07-17T05:19:40.474Z,62.28
2018-07-17T05:22:11.312Z,61.12
2018-07-17T05:24:41.483Z,60.67
2018-07-17T05:27:11.662Z,61.43
2018-07-17T05:29:41.803Z,59.16
2018-07-17T05:32:12.286Z,58.30
2018-07-17T05:34:42.426Z,58.27
2018-07-17T05:37:12.599Z,57.28
2018-07-17T05:39:43.044Z,56.07
2018-07-17T05:42:13.192Z,52.46
2018-07-17T05:44:43.321Z,50.16
2018-07-17T05:47:13.536Z,46.32
2018-07-17T05:49:43.687Z,43.84
2018-07-17T05:52:13.922Z,41.52
2018-07-17T05:54:44.034Z,41.11
2018-07-17T05:57:14.221Z,39.47
2018-07-17T05:59:44.339Z,37.80
2018-07-17T06:02:14.897Z,38.57
2018-07-17T06:04:45.056Z,37.97
2018-07-17T06:07:15.353Z,36.45
2018-07-17T06:09:45.123Z,34.81
2018-07-17T06:12:15.332Z,33.21
2018-07-17T06:14:45.524Z,32.61
2018-07-17T06:17:16.094Z,32.26
2018-07-17T06:19:46.221Z,33.55
2018-07-17T06:22:16.332Z,32.70
2018-07-17T06:24:46.602Z,32.37
2018-07-17T06:27:16.819Z,33.29
2018-07-17T06:29:47.062Z,34.62
2018-07-17T06:32:17.522Z,33.82
2018-07-17T06:34:47.773Z,34.08
2018-07-17T06:37:18.752Z,35.07
2018-07-17T06:39:48.920Z,34.98
2018-07-17T06:42:18.971Z,37.38
2018-07-17T06:44:49.406Z,36.58
2018-07-17T06:47:19.653Z,38.75
2018-07-17T06:49:49.945Z,37.13
2018-07-17T06:52:20.116Z,37.58
2018-07-17T06:54:50.277Z,38.82
2018-07-17T06:57:20.595Z,39.24
2018-07-17T06:59:50.768Z,38.31
2018-07-17T07:02:20.888Z,37.35
2018-07-17T07:04:51.133Z,36.99
2018-07-17T07:07:21.240Z,35.82
2018-07-17T07:09:51.476Z,35.60
2018-07-17T07:12:21.688Z,37.49
2018-07-17T07:14:51.845Z,35.63
2018-07-17T07:17:22.136Z,38.83
2018-07-17T07:19:52.299Z,37.53
2018-07-17T07:22:22.470Z,35.01
2018-07-17T07:24:52.623Z,35.85
2018-07-17T07:27:22.767Z,36.60
2018-07-17T07:29:52.943Z,36.42
2018-07-17T07:32:23.039Z,35.31
2018-07-17T07:34:53.326Z,36.09
2018-07-17T07:37:23.431Z,37.81
2018-07-17T07:39:53.545Z,39.26
2018-07-17T07:42:23.666Z,38.91
2018-07-17T07:44:53.944Z,39.99
2018-07-17T07:47:24.075Z,42.31
2018-07-17T07:49:54.324Z,43.58
2018-07-17T07:52:24.523Z,42.65
2018-07-17T07:54:54.747Z,42.74
2018-07-17T07:57:24.907Z,44.06
2018-07-17T07:59:55.127Z,44.96
2018-07-17T08:02:25.441Z,43.64
2018-07-17T08:04:55.872Z,42.38
2018-07-17T08:07:30.596Z,44.12
2018-07-17T08:10:01.010Z,44.92
2018-07-17T08:12:31.271Z,44.18
2018-07-17T08:15:02.699Z,44.72
2018-07-17T08:17:32.991Z,43.32
2018-07-17T08:20:03.346Z,42.25
2018-07-17T08:22:33.610Z,40.51
2018-07-17T08:25:03.817Z,36.43
2018-07-17T08:27:34.069Z,34.94
2018-07-17T08:30:04.424Z,34.13
2018-07-17T08:32:34.647Z,34.53
2018-07-17T08:35:05.098Z,33.25
2018-07-17T08:37:35.626Z,31.49
2018-07-17T08:40:06.270Z,31.28
2018-07-17T08:42:36.583Z,30.89
2018-07-17T08:45:14.131Z,32.37
2018-07-17T08:47:44.399Z,33.36
2018-07-17T08:50:14.596Z,33.89
2018-07-17T08:52:44.832Z,34.34
2018-07-17T08:55:15.011Z,36.32
2018-07-17T08:57:45.235Z,36.52
2018-07-17T09:00:15.462Z,37.41
2018-07-17T09:02:46.380Z,36.61
2018-07-17T09:05:18.175Z,36.95
2018-07-17T09:07:48.434Z,35.56
2018-07-17T09:10:19.174Z,33.44
2018-07-17T09:12:49.437Z,33.93
2018-07-17T09:15:19.678Z,31.46
2018-07-17T09:17:49.784Z,30.35
2018-07-17T09:20:19.978Z,30.84
2018-07-17T09:22:50.310Z,31.18
2018-07-17T09:25:20.481Z,30.18
2018-07-17T09:27:50.846Z,29.24
2018-07-17T09:30:21.042Z,29.11
2018-07-17T09:32:51.196Z,29.56
2018-07-17T09:35:21.431Z,30.54
2018-07-17T09:37:51.522Z,30.34
2018-07-17T09:40:21.669Z,30.19
2018-07-17T09:42:51.867Z,32.03
2018-07-17T09:45:22.068Z,33.50
2018-07-17T09:47:52.196Z,33.08
2018-07-17T09:50:22.356Z,32.93
2018-07-17T09:52:52.508Z,34.81
2018-07-17T09:55:22.664Z,36.66
2018-07-17T09:57:52.787Z,36.57
2018-07-17T10:00:27.889Z,36.66
2018-07-17T10:02:58.353Z,35.21
2018-07-17T10:05:33.421Z,34.70
2018-07-17T10:08:10.229Z,34.62
2018-07-17T10:10:42.635Z,34.11
2018-07-17T10:13:12.946Z,36.03
2018-07-17T10:15:43.166Z,36.12
2018-07-17T10:18:14.014Z,34.52
2018-07-17T10:20:44.243Z,33.52
2018-07-17T10:23:14.456Z,32.97
2018-07-17T10:25:44.727Z,31.99
2018-07-17T10:28:14.856Z,32.51
2018-07-17T10:30:48.155Z,30.87
2018-07-17T10:33:18.343Z,31.64
2018-07-17T10:35:48.431Z,31.93
2018-07-17T10:38:18.582Z,29.53
2018-07-17T10:40:48.733Z,30.97
2018-07-17T10:43:18.868Z,30.90
2018-07-17T10:45:49.158Z,32.18
2018-07-17T10:48:19.490Z,30.97
2018-07-17T10:50:49.622Z,30.46
2018-07-17T10:53:19.779Z,30.63
2018-07-17T10:55:55.322Z,32.39
2018-07-17T10:58:25.814Z,31.94
2018-07-17T11:00:56.998Z,30.34
2018-07-17T11:03:27.836Z,28.97
2018-07-17T11:05:58.428Z,28.22
2018-07-17T11:08:28.769Z,30.58
2018-07-17T11:10:58.908Z,30.96
2018-07-17T11:13:29.182Z,30.63
2018-07-17T11:15:59.679Z,30.82
2018-07-17T11:18:30.022Z,31.02
2018-07-17T11:21:00.152Z,30.39
2018-07-17T11:23:30.372Z,31.20
2018-07-17T11:26:01.084Z,29.80
2018-07-17T11:28:31.224Z,30.83
2018-07-17T11:31:01.429Z,29.65
2018-07-17T11:33:31.601Z,29.53
2018-07-17T11:36:01.748Z,28.33
2018-07-17T11:38:32.154Z,28.49
2018-07-17T11:41:03.182Z,29.40
2018-07-17T11:43:33.480Z,29.66
2018-07-17T11:46:03.639Z,30.48
2018-07-17T11:48:33.836Z,30.77
2018-07-17T11:51:04.103Z,31.02
2018-07-17T11:53:34.372Z,29.92
2018-07-17T11:56:04.702Z,31.28
2018-07-17T11:58:35.037Z,31.74
2018-07-17T12:01:05.279Z,31.02
2018-07-17T12:03:35.537Z,31.33
2018-07-17T12:06:05.771Z,31.97
2018-07-17T12:08:35.935Z,31.04
2018-07-17T12:11:06.311Z,28.99
2018-07-17T12:13:36.553Z,29.31
2018-07-17T12:16:07.102Z,29.27
2018-07-17T12:18:38.906Z,30.94
2018-07-17T12:21:09.227Z,30.02
2018-07-17T12:23:39.379Z,29.95
2018-07-17T12:26:09.690Z,28.61
2018-07-17T12:28:39.817Z,28.81
2018-07-17T12:31:09.963Z,27.98
2018-07-17T12:33:40.611Z,28.94
2018-07-17T12:36:10.917Z,29.12
2018-07-17T12:38:41.112Z,29.29
2018-07-17T12:41:11.472Z,31.44
2018-07-17T12:43:41.747Z,29.19
2018-07-17T12:46:11.908Z,29.83
2018-07-17T12:48:42.063Z,29.74
2018-07-17T12:51:12.205Z,29.34
2018-07-17T12:53:42.431Z,27.74
2018-07-17T12:56:12.707Z,28.52
2018-07-17T12:58:42.421Z,28.23
2018-07-17T13:01:12.510Z,28.17
2018-07-17T13:03:42.646Z,27.76
2018-07-17T13:06:12.841Z,26.85
2018-07-17T13:08:43.403Z,27.27
2018-07-17T13:11:13.791Z,28.59
2018-07-17T13:13:43.956Z,28.79
2018-07-17T13:16:14.394Z,27.95
2018-07-17T13:18:44.601Z,28.89
2018-07-17T13:21:14.740Z,28.75
2018-07-17T13:23:44.933Z,29.22
2018-07-17T13:26:15.186Z,28.73
2018-07-17T13:28:45.340Z,30.22
2018-07-17T13:31:15.142Z,28.28
2018-07-17T13:33:45.308Z,28.57
2018-07-17T13:36:15.885Z,28.80
2018-07-17T13:38:46.371Z,27.79
2018-07-17T13:41:16.534Z,30.10
2018-07-17T13:43:47.013Z,30.07
2018-07-17T13:46:17.286Z,27.04
2018-07-17T13:48:47.474Z,27.46
2018-07-17T13:51:17.600Z,26.26
2018-07-17T13:53:47.827Z,26.26
2018-07-17T13:56:18.038Z,27.07
2018-07-17T13:58:48.278Z,29.05
2018-07-17T14:01:19.422Z,27.91
2018-07-17T14:03:49.573Z,27.30
2018-07-17T14:06:19.982Z,27.54
2018-07-17T14:08:50.118Z,29.21
2018-07-17T14:11:20.298Z,28.31
2018-07-17T14:13:50.458Z,28.53
2018-07-17T14:16:20.775Z,28.46
2018-07-17T14:18:50.918Z,29.21
2018-07-17T14:21:21.106Z,28.96
2018-07-17T14:23:51.352Z,27.53
2018-07-17T14:26:21.496Z,26.96
2018-07-17T14:28:51.690Z,27.24
2018-07-17T14:31:21.462Z,27.35
2018-07-17T14:33:52.149Z,26.47
2018-07-17T14:36:22.549Z,27.22
2018-07-17T14:38:52.790Z,27.11
2018-07-17T14:41:22.997Z,28.73
2018-07-17T14:43:53.245Z,27.39
2018-07-17T14:46:23.532Z,26.93
2018-07-17T14:48:53.769Z,28.03
2018-07-17T14:51:23.430Z,27.61
2018-07-17T14:53:53.685Z,28.08
2018-07-17T14:56:23.814Z,29.28
2018-07-17T14:58:54.139Z,28.86
2018-07-17T15:01:24.402Z,29.29
2018-07-17T15:03:54.736Z,29.23
2018-07-17T15:06:24.904Z,28.92
2018-07-17T15:08:55.079Z,28.70
2018-07-17T15:11:25.381Z,29.23
2018-07-17T15:13:55.576Z,27.86
2018-07-17T15:16:25.918Z,28.15
2018-07-17T15:18:56.151Z,26.86
2018-07-17T15:21:26.358Z,26.09
2018-07-17T15:23:56.725Z,27.62
2018-07-17T15:26:26.899Z,29.47
2018-07-17T15:28:57.142Z,31.46
2018-07-17T15:31:27.296Z,32.58
2018-07-17T15:33:57.446Z,29.88
2018-07-17T15:36:27.665Z,27.84
2018-07-17T15:38:57.897Z,28.57
2018-07-17T15:41:28.064Z,28.77
2018-07-17T15:43:58.264Z,29.92
2018-07-17T15:46:28.505Z,30.75
2018-07-17T15:48:58.695Z,30.35
2018-07-17T15:51:28.877Z,31.69
2018-07-17T15:53:59.071Z,32.29
2018-07-17T15:56:29.209Z,31.96
2018-07-17T15:58:59.380Z,31.56
2018-07-17T16:01:29.552Z,30.38
2018-07-17T16:03:59.712Z,27.58
2018-07-17T16:06:29.864Z,27.24
2018-07-17T16:09:00.056Z,26.90
2018-07-17T16:11:30.328Z,27.69
2018-07-17T16:14:00.769Z,28.52
2018-07-17T16:16:30.709Z,30.95
2018-07-17T16:19:00.850Z,31.67
2018-07-17T16:21:30.984Z,32.80
2018-07-17T16:24:01.145Z,32.13
2018-07-17T16:26:31.306Z,30.78
2018-07-17T16:29:01.501Z,31.71
2018-07-17T16:31:31.769Z,32.45
2018-07-17T16:34:01.937Z,31.80
2018-07-17T16:36:32.032Z,30.88
2018-07-17T16:39:02.197Z,28.30
2018-07-17T16:41:32.382Z,27.95
2018-07-17T16:44:02.581Z,27.92
2018-07-17T16:46:32.720Z,28.23
2018-07-17T16:49:03.144Z,29.51
2018-07-17T16:51:33.825Z,31.74
2018-07-17T16:54:04.103Z,31.19
2018-07-17T16:56:35.768Z,31.66
2018-07-17T16:59:06.590Z,32.06
2018-07-17T17:01:37.211Z,33.93
2018-07-17T17:04:07.525Z,33.56
2018-07-17T17:06:37.851Z,33.06
2018-07-17T17:09:11.518Z,34.00
2018-07-17T17:11:41.867Z,34.96
2018-07-17T17:14:12.153Z,33.36
2018-07-17T17:16:42.317Z,33.42
2018-07-17T17:19:12.594Z,33.87
2018-07-17T17:21:42.796Z,34.69
2018-07-17T17:24:12.916Z,34.80
2018-07-17T17:26:43.059Z,35.62
2018-07-17T17:29:13.261Z,35.12
2018-07-17T17:31:43.420Z,37.59
2018-07-17T17:34:13.579Z,36.03
2018-07-17T17:36:44.025Z,37.17
2018-07-17T17:39:14.100Z,37.84
2018-07-17T17:41:44.206Z,38.07
2018-07-17T17:44:14.362Z,39.18
2018-07-17T17:46:45.403Z,38.89
2018-07-17T17:49:15.562Z,38.72
2018-07-17T17:51:45.715Z,38.81
2018-07-17T17:54:15.951Z,37.83
2018-07-17T17:56:46.235Z,37.85
2018-07-17T17:59:16.397Z,37.83
2018-07-17T18:01:46.535Z,37.79
2018-07-17T18:04:16.700Z,38.75
2018-07-17T18:06:46.849Z,38.88
2018-07-17T18:09:17.390Z,40.21
2018-07-17T18:11:47.568Z,40.70
2018-07-17T18:14:17.749Z,40.40
2018-07-17T18:16:47.844Z,41.61
2018-07-17T18:19:18.049Z,41.90
2018-07-17T18:21:48.189Z,42.25
2018-07-17T18:24:18.731Z,43.00
2018-07-17T18:26:48.973Z,43.09
2018-07-17T18:29:19.129Z,43.59
2018-07-17T18:31:49.429Z,43.68
2018-07-17T18:34:19.641Z,44.44
2018-07-17T18:36:49.754Z,44.81
2018-07-17T18:39:20.003Z,44.86
2018-07-17T18:41:50.221Z,45.29
2018-07-17T18:44:20.421Z,45.67
2018-07-17T18:46:50.715Z,45.64
2018-07-17T18:49:20.910Z,45.62
2018-07-17T18:51:51.106Z,45.52
2018-07-17T18:54:21.282Z,45.47
2018-07-17T18:56:51.397Z,46.20
2018-07-17T18:59:21.836Z,46.71
2018-07-17T19:01:52.008Z,46.39
2018-07-17T19:04:22.335Z,46.31
2018-07-17T19:06:52.581Z,46.43
2018-07-17T19:09:22.796Z,47.02
2018-07-17T19:11:53.042Z,46.87
2018-07-17T19:14:23.240Z,47.41
2018-07-17T19:16:53.441Z,47.09
2018-07-17T19:19:23.744Z,47.12
2018-07-17T19:21:53.867Z,48.43
2018-07-17T19:24:24.152Z,47.55
2018-07-17T19:26:54.305Z,47.71
2018-07-17T19:29:24.690Z,47.17
2018-07-17T19:31:54.844Z,47.60
2018-07-17T19:34:25.047Z,47.65
2018-07-17T19:36:55.137Z,47.59
2018-07-17T19:39:25.330Z,47.59
2018-07-17T19:41:55.463Z,48.09
2018-07-17T19:44:25.895Z,47.38
2018-07-17T19:46:56.037Z,47.50
2018-07-17T19:49:26.218Z,48.47
2018-07-17T19:51:56.366Z,48.47
2018-07-17T19:54:26.599Z,48.53
2018-07-17T19:56:56.718Z,48.58
2018-07-17T19:59:26.939Z,48.00
2018-07-17T20:01:57.473Z,48.47
2018-07-17T20:04:27.655Z,48.82
2018-07-17T20:06:57.889Z,47.56
2018-07-17T20:09:28.018Z,48.42
2018-07-17T20:11:58.211Z,48.29
2018-07-17T20:14:28.399Z,47.87
2018-07-17T20:16:58.174Z,49.01
2018-07-17T20:19:28.363Z,48.21
2018-07-17T20:21:58.062Z,48.88
2018-07-17T20:24:28.259Z,49.18
2018-07-17T20:26:58.408Z,49.98
2018-07-17T20:29:29.086Z,49.73
2018-07-17T20:31:59.300Z,50.18
2018-07-17T20:34:29.736Z,49.96
2018-07-17T20:36:59.943Z,49.86
2018-07-17T20:39:30.684Z,48.72
2018-07-17T20:42:00.883Z,49.38
2018-07-17T20:44:30.988Z,49.92
2018-07-17T20:47:01.133Z,49.74
2018-07-17T20:49:31.698Z,50.59
2018-07-17T20:52:01.938Z,51.65
2018-07-17T20:54:32.552Z,50.75
2018-07-17T20:57:03.171Z,50.66
2018-07-17T20:59:33.337Z,51.69
2018-07-17T21:02:03.890Z,51.24
2018-07-17T21:04:33.975Z,51.16
2018-07-17T21:07:04.886Z,50.37
2018-07-17T21:09:35.173Z,50.28
2018-07-17T21:12:05.783Z,50.69
2018-07-17T21:14:36.221Z,50.86
2018-07-17T21:17:13.560Z,50.77
2018-07-17T21:19:43.792Z,51.50
2018-07-17T21:22:14.242Z,50.98
2018-07-17T21:24:44.395Z,51.31
2018-07-17T21:29:53.145Z,51.60
2018-07-17T21:32:23.222Z,52.14
2018-07-17T21:34:53.484Z,52.13
2018-07-17T21:37:23.611Z,51.73
2018-07-17T21:39:53.809Z,52.66
2018-07-17T21:42:24.278Z,53.23
2018-07-17T21:44:54.603Z,53.98
2018-07-17T21:47:24.801Z,53.70
2018-07-17T21:49:55.043Z,54.26
2018-07-17T21:52:25.172Z,54.20
2018-07-17T21:54:55.394Z,54.59
2018-07-17T21:57:25.622Z,53.90
2018-07-17T21:59:55.795Z,55.01
2018-07-17T22:02:26.416Z,54.54
2018-07-17T22:04:56.678Z,54.17
2018-07-17T22:07:26.948Z,55.51
2018-07-17T22:09:57.113Z,54.85
2018-07-17T22:12:27.340Z,55.06
2018-07-17T22:14:57.502Z,55.26
2018-07-17T22:17:27.618Z,56.31
2018-07-17T22:19:57.792Z,55.90
2018-07-17T22:22:27.921Z,56.29
2018-07-17T22:24:58.092Z,55.82
2018-07-17T22:27:28.212Z,56.27
2018-07-17T22:29:58.555Z,56.62
2018-07-17T22:32:28.710Z,56.85
2018-07-17T22:34:58.925Z,56.59
2018-07-17T22:37:29.202Z,57.30
2018-07-17T22:39:59.478Z,56.12
2018-07-17T22:42:29.643Z,56.67
2018-07-17T22:44:59.819Z,56.52
2018-07-17T22:47:29.965Z,56.00
2018-07-17T22:50:00.161Z,56.57
2018-07-17T22:52:30.358Z,57.03
2018-07-17T22:55:00.540Z,56.81
2018-07-17T22:57:30.743Z,56.43
2018-07-17T23:00:11.420Z,56.81
2018-07-17T23:02:44.173Z,57.37
2018-07-17T23:05:16.354Z,57.42
2018-07-17T23:07:48.672Z,57.70
2018-07-17T23:10:23.857Z,57.75
2018-07-17T23:12:55.407Z,58.72
2018-07-17T23:15:27.364Z,59.05
2018-07-17T23:17:58.818Z,60.88
2018-07-17T23:20:29.096Z,61.44
2018-07-17T23:23:00.320Z,61.98
2018-07-17T23:25:31.881Z,61.94
2018-07-17T23:28:02.396Z,62.36
2018-07-17T23:30:32.745Z,62.78
2018-07-17T23:33:02.883Z,62.49
2018-07-17T23:35:33.039Z,63.26
2018-07-17T23:38:03.259Z,63.38
2018-07-17T23:40:33.468Z,63.63
2018-07-17T23:43:03.643Z,63.71
2018-07-17T23:45:33.767Z,64.43
2018-07-17T23:48:03.928Z,64.30
2018-07-17T23:50:34.249Z,64.62
2018-07-17T23:53:04.373Z,64.59
2018-07-17T23:55:34.661Z,65.37
2018-07-17T23:58:04.772Z,65.91
